createdAt,value
2022-09-13T00:00:32.039Z,95324
2022-09-13T00:01:40.777Z,95327
2022-09-13T00:02:50.520Z,95324
2022-09-13T00:03:58.200Z,95321
2022-09-13T00:05:06.863Z,95318
2022-09-13T00:06:15.549Z,95319
2022-09-13T00:07:24.270Z,95311
2022-09-13T00:08:33.976Z,95315
2022-09-13T00:09:43.654Z,95311
2022-09-13T00:10:51.349Z,95312
2022-09-13T00:12:01.047Z,95312
2022-09-13T00:13:09.789Z,95313
2022-09-13T00:14:19.473Z,95309
2022-09-13T00:15:27.157Z,95308
2022-09-13T00:16:36.930Z,95307
2022-09-13T00:17:46.530Z,95305
2022-09-13T00:18:54.240Z,95302
2022-09-13T00:20:03.947Z,95304
2022-09-13T00:21:13.630Z,95303
2022-09-13T00:22:21.301Z,95302
2022-09-13T00:23:31.010Z,95301
2022-09-13T00:24:39.735Z,95300
2022-09-13T00:25:48.372Z,95299
2022-09-13T00:26:58.057Z,95295
2022-09-13T00:28:07.755Z,95295
2022-09-13T00:29:16.441Z,95298
2022-09-13T00:30:26.152Z,95295
2022-09-13T00:31:34.885Z,95291
2022-09-13T00:32:43.552Z,95291
2022-09-13T00:33:53.266Z,95284
2022-09-13T00:35:02.944Z,95287
2022-09-13T00:36:12.697Z,95280
2022-09-13T00:37:21.368Z,95282
2022-09-13T00:38:31.050Z,95279
2022-09-13T00:39:40.828Z,95274
2022-09-13T00:40:51.406Z,95273
2022-09-13T00:42:00.147Z,95270
2022-09-13T00:43:08.845Z,95268
2022-09-13T00:44:17.525Z,95268
2022-09-13T00:45:27.246Z,95273
2022-09-13T00:46:34.868Z,95272
2022-09-13T00:47:43.680Z,95276
2022-09-13T00:48:53.493Z,95271
2022-09-13T00:50:01.105Z,95271
2022-09-13T00:51:09.765Z,95270
2022-09-13T00:52:18.438Z,95282
2022-09-13T00:53:28.149Z,95272
2022-09-13T00:54:37.844Z,95278
2022-09-13T00:55:45.520Z,95281
2022-09-13T00:56:55.196Z,95277
2022-09-13T00:58:04.887Z,95280
2022-09-13T00:59:13.621Z,95283
2022-09-13T01:00:23.318Z,95279
2022-09-13T01:01:31.987Z,95281
2022-09-13T01:02:40.661Z,95283
2022-09-13T01:03:49.424Z,95279
2022-09-13T01:04:58.179Z,95278
2022-09-13T01:06:07.776Z,95277
2022-09-13T01:07:15.447Z,95286
2022-09-13T01:08:25.143Z,95283
2022-09-13T01:09:34.838Z,95282
2022-09-13T01:10:42.539Z,95275
2022-09-13T01:11:51.240Z,95268
2022-09-13T01:13:00.932Z,95263
2022-09-13T01:14:10.625Z,95258
2022-09-13T01:15:20.281Z,95252
2022-09-13T01:16:28.144Z,95254
2022-09-13T01:17:37.784Z,95251
2022-09-13T01:18:47.468Z,95244
2022-09-13T01:19:56.145Z,95244
2022-09-13T01:21:05.864Z,95244
2022-09-13T01:22:15.700Z,95242
2022-09-13T01:23:24.353Z,95240
2022-09-13T01:24:34.019Z,95238
2022-09-13T01:25:42.757Z,95237
2022-09-13T01:26:51.417Z,95237
2022-09-13T01:28:00.115Z,95233
2022-09-13T01:29:08.780Z,95236
2022-09-13T01:30:18.480Z,95231
2022-09-13T01:31:28.200Z,95238
2022-09-13T01:32:36.857Z,95240
2022-09-13T01:33:46.632Z,95239
2022-09-13T01:34:55.263Z,95240
2022-09-13T01:36:03.909Z,95237
2022-09-13T01:37:13.642Z,95242
2022-09-13T01:38:20.321Z,95238
2022-09-13T01:39:29.065Z,95237
2022-09-13T01:40:37.738Z,95237
2022-09-13T01:41:46.406Z,95229
2022-09-13T01:42:56.110Z,95227
2022-09-13T01:44:03.766Z,95230
2022-09-13T01:45:12.474Z,95229
2022-09-13T01:46:22.149Z,95233
2022-09-13T01:47:29.829Z,95231
2022-09-13T01:48:38.508Z,95231
2022-09-13T01:49:47.178Z,95229
2022-09-13T01:50:55.869Z,95225
2022-09-13T01:52:05.598Z,95222
2022-09-13T01:53:13.284Z,95223
2022-09-13T01:54:21.920Z,95223
2022-09-13T01:55:59.333Z,95220
2022-09-13T01:57:08.039Z,95222
2022-09-13T01:58:17.782Z,95223
2022-09-13T01:59:27.623Z,95224
2022-09-13T02:00:37.401Z,95219
2022-09-13T02:01:47.244Z,95223
2022-09-13T02:02:55.969Z,95222
2022-09-13T02:04:05.778Z,95232
2022-09-13T02:05:15.566Z,95226
2022-09-13T02:06:24.359Z,95223
2022-09-13T02:07:34.263Z,95225
2022-09-13T02:08:44.029Z,95224
2022-09-13T02:09:52.725Z,95221
2022-09-13T02:11:01.430Z,95230
2022-09-13T02:12:11.214Z,95229
2022-09-13T02:13:19.963Z,95231
2022-09-13T02:14:29.800Z,95230
2022-09-13T02:15:38.520Z,95228
2022-09-13T02:16:47.325Z,95226
2022-09-13T02:17:57.222Z,95230
2022-09-13T02:19:06.201Z,95231
2022-09-13T02:20:14.937Z,95226
2022-09-13T02:21:23.699Z,95224
2022-09-13T02:22:32.420Z,95219
2022-09-13T02:23:42.198Z,95223
2022-09-13T02:24:50.066Z,95224
2022-09-13T02:25:58.727Z,95224
2022-09-13T02:27:07.500Z,95223
2022-09-13T02:28:16.299Z,95221
2022-09-13T02:29:25.006Z,95227
2022-09-13T02:30:34.765Z,95232
2022-09-13T02:31:43.582Z,95229
2022-09-13T02:32:53.231Z,95231
2022-09-13T02:34:01.940Z,95233
2022-09-13T02:35:10.709Z,95234
2022-09-13T02:36:20.469Z,95237
2022-09-13T02:37:28.250Z,95238
2022-09-13T02:38:38.029Z,95231
2022-09-13T02:39:47.833Z,95240
2022-09-13T02:40:57.531Z,95243
2022-09-13T02:42:10.462Z,95242
2022-09-13T02:43:16.984Z,95241
2022-09-13T02:44:26.768Z,95243
2022-09-13T02:45:36.571Z,95237
2022-09-13T02:46:44.250Z,95244
2022-09-13T02:47:53.995Z,95246
2022-09-13T02:49:02.896Z,95243
2022-09-13T02:50:11.586Z,95234
2022-09-13T02:51:21.279Z,95238
2022-09-13T02:52:28.987Z,95235
2022-09-13T02:53:36.775Z,95235
2022-09-13T02:54:46.497Z,95242
2022-09-13T02:55:56.234Z,95244
2022-09-13T02:57:07.053Z,95246
2022-09-13T02:58:16.664Z,95245
2022-09-13T02:59:26.413Z,95243
2022-09-13T03:00:36.198Z,95246
2022-09-13T03:01:45.980Z,95246
2022-09-13T03:02:55.626Z,95245
2022-09-13T03:04:03.301Z,95244
2022-09-13T03:05:12.036Z,95244
2022-09-13T03:06:21.716Z,95243
2022-09-13T03:07:29.469Z,95242
2022-09-13T03:08:38.243Z,95238
2022-09-13T03:09:46.976Z,95240
2022-09-13T03:10:55.730Z,95240
2022-09-13T03:12:05.455Z,95239
2022-09-13T03:13:15.189Z,95237
2022-09-13T03:14:23.879Z,95239
2022-09-13T03:15:33.649Z,95247
2022-09-13T03:16:43.503Z,95242
2022-09-13T03:17:53.191Z,95244
2022-09-13T03:19:02.883Z,95240
2022-09-13T03:20:12.680Z,95240
2022-09-13T03:21:21.385Z,95245
2022-09-13T03:22:29.123Z,95245
2022-09-13T03:23:37.812Z,95246
2022-09-13T03:24:47.537Z,95242
2022-09-13T03:25:56.334Z,95243
2022-09-13T03:27:06.038Z,95246
2022-09-13T03:28:14.919Z,95242
2022-09-13T03:29:24.759Z,95240
2022-09-13T03:30:35.492Z,95240
2022-09-13T03:31:45.340Z,95243
2022-09-13T03:32:54.069Z,95238
2022-09-13T03:34:03.897Z,95237
2022-09-13T03:35:12.630Z,95233
2022-09-13T03:36:21.366Z,95233
2022-09-13T03:37:32.572Z,95230
2022-09-13T03:38:41.338Z,95225
2022-09-13T03:39:51.133Z,95223
2022-09-13T03:40:58.912Z,95219
2022-09-13T03:42:08.691Z,95211
2022-09-13T03:43:18.420Z,95218
2022-09-13T03:44:27.177Z,95215
2022-09-13T03:45:36.095Z,95214
2022-09-13T03:46:45.797Z,95210
2022-09-13T03:47:54.519Z,95206
2022-09-13T03:49:04.273Z,95206
2022-09-13T03:50:14.268Z,95207
2022-09-13T03:51:23.981Z,95212
2022-09-13T03:52:33.761Z,95219
2022-09-13T03:53:41.450Z,95223
2022-09-13T03:54:51.245Z,95227
2022-09-13T03:55:59.954Z,95233
2022-09-13T03:57:08.912Z,95235
2022-09-13T03:58:18.669Z,95233
2022-09-13T03:59:27.382Z,95239
2022-09-13T04:00:37.309Z,95238
2022-09-13T04:01:46.073Z,95239
2022-09-13T04:02:54.046Z,95236
2022-09-13T04:04:03.858Z,95240
2022-09-13T04:05:13.623Z,95242
2022-09-13T04:06:22.335Z,95244
2022-09-13T04:07:32.067Z,95238
2022-09-13T04:08:40.878Z,95236
2022-09-13T04:09:49.664Z,95237
2022-09-13T04:10:59.466Z,95234
2022-09-13T04:12:07.252Z,95232
2022-09-13T04:13:16.249Z,95231
2022-09-13T04:14:26.056Z,95230
2022-09-13T04:15:35.794Z,95230
2022-09-13T04:16:45.727Z,95228
2022-09-13T04:17:55.285Z,95233
2022-09-13T04:19:05.261Z,95230
2022-09-13T04:20:14.950Z,95232
2022-09-13T04:21:23.668Z,95230
2022-09-13T04:22:32.368Z,95230
2022-09-13T04:23:42.203Z,95226
2022-09-13T04:24:51.861Z,95225
2022-09-13T04:26:02.619Z,95226
2022-09-13T04:27:11.288Z,95230
2022-09-13T04:28:21.102Z,95232
2022-09-13T04:29:30.751Z,95230
2022-09-13T04:30:42.676Z,95234
2022-09-13T04:31:49.740Z,95230
2022-09-13T04:32:59.377Z,95231
2022-09-13T04:34:09.073Z,95230
2022-09-13T04:35:18.833Z,95227
2022-09-13T04:36:28.546Z,95237
2022-09-13T04:37:38.402Z,95235
2022-09-13T04:38:48.227Z,95231
2022-09-13T04:39:56.901Z,95230
2022-09-13T04:41:05.547Z,95231
2022-09-13T04:42:15.297Z,95228
2022-09-13T04:43:25.071Z,95231
2022-09-13T04:44:33.794Z,95232
2022-09-13T04:45:42.720Z,95233
2022-09-13T04:46:52.409Z,95232
2022-09-13T04:48:02.186Z,95232
2022-09-13T04:49:10.945Z,95235
2022-09-13T04:50:19.665Z,95234
2022-09-13T04:51:28.447Z,95238
2022-09-13T04:52:37.154Z,95241
2022-09-13T04:53:46.881Z,95240
2022-09-13T04:54:54.604Z,95237
2022-09-13T04:56:04.344Z,95236
2022-09-13T04:57:14.050Z,95238
2022-09-13T04:58:23.782Z,95239
2022-09-13T04:59:33.591Z,95240
2022-09-13T05:00:41.450Z,95241
2022-09-13T05:01:51.287Z,95248
2022-09-13T05:02:59.997Z,95244
2022-09-13T05:04:09.778Z,95247
2022-09-13T05:05:19.502Z,95251
2022-09-13T05:06:29.412Z,95254
2022-09-13T05:07:39.183Z,95244
2022-09-13T05:08:49.001Z,95240
2022-09-13T05:09:58.609Z,95245
2022-09-13T05:11:08.384Z,95244
2022-09-13T05:12:17.240Z,95247
2022-09-13T05:13:25.947Z,95248
2022-09-13T05:14:35.644Z,95243
2022-09-13T05:15:44.394Z,95244
2022-09-13T05:16:54.116Z,95244
2022-09-13T05:18:03.886Z,95247
2022-09-13T05:19:13.684Z,95245
2022-09-13T05:20:22.395Z,95242
2022-09-13T05:21:32.149Z,95243
2022-09-13T05:22:40.860Z,95245
2022-09-13T05:23:50.662Z,95240
2022-09-13T05:24:59.384Z,95243
2022-09-13T05:26:08.258Z,95241
2022-09-13T05:27:17.931Z,95240
2022-09-13T05:28:26.663Z,95238
2022-09-13T05:29:36.417Z,95242
2022-09-13T05:30:46.153Z,95244
2022-09-13T05:31:54.884Z,95245
2022-09-13T05:33:04.699Z,95250
2022-09-13T05:34:13.421Z,95252
2022-09-13T05:35:22.185Z,95258
2022-09-13T05:36:31.912Z,95255
2022-09-13T05:37:40.712Z,95257
2022-09-13T05:38:55.070Z,95262
2022-09-13T05:40:11.044Z,95261
2022-09-13T05:41:10.919Z,95255
2022-09-13T05:42:20.724Z,95255
2022-09-13T05:43:30.474Z,95260
2022-09-13T05:44:40.298Z,95256
2022-09-13T05:45:50.054Z,95258
2022-09-13T05:46:58.833Z,95252
2022-09-13T05:48:08.602Z,95252
2022-09-13T05:49:18.403Z,95253
2022-09-13T05:50:56.641Z,95254
2022-09-13T05:51:38.768Z,95251
2022-09-13T05:52:47.548Z,95252
2022-09-13T05:53:57.392Z,95248
2022-09-13T05:55:07.228Z,95252
2022-09-13T05:56:16.879Z,95251
2022-09-13T05:57:24.788Z,95247
2022-09-13T05:58:33.573Z,95245
2022-09-13T05:59:43.273Z,95247
2022-09-13T06:00:53.014Z,95246
2022-09-13T06:02:00.768Z,95250
2022-09-13T06:03:09.418Z,95249
2022-09-13T06:04:19.318Z,95251
2022-09-13T06:05:31.239Z,95254
2022-09-13T06:06:36.835Z,95251
2022-09-13T06:07:46.532Z,95249
2022-09-13T06:08:56.321Z,95251
2022-09-13T06:10:06.400Z,95249
2022-09-13T06:11:16.057Z,95248
2022-09-13T06:12:25.829Z,95245
2022-09-13T06:13:35.580Z,95247
2022-09-13T06:14:44.271Z,95242
2022-09-13T06:15:53.187Z,95239
2022-09-13T06:17:03.033Z,95239
2022-09-13T06:18:12.854Z,95236
2022-09-13T06:19:22.629Z,95235
2022-09-13T06:20:30.359Z,95239
2022-09-13T06:21:39.060Z,95242
2022-09-13T06:22:48.775Z,95243
2022-09-13T06:23:58.509Z,95247
2022-09-13T06:25:07.227Z,95248
2022-09-13T06:26:16.902Z,95254
2022-09-13T06:27:24.691Z,95254
2022-09-13T06:28:37.382Z,95260
2022-09-13T06:29:44.723Z,95260
2022-09-13T06:30:54.566Z,95259
2022-09-13T06:32:04.260Z,95255
2022-09-13T06:33:13.075Z,95256
2022-09-13T06:34:21.810Z,95254
2022-09-13T06:35:32.534Z,95249
2022-09-13T06:36:41.391Z,95249
2022-09-13T06:37:49.967Z,95245
2022-09-13T06:38:59.699Z,95244
2022-09-13T06:40:08.558Z,95248
2022-09-13T06:41:18.257Z,95251
2022-09-13T06:42:27.978Z,95247
2022-09-13T06:43:36.632Z,95247
2022-09-13T06:44:46.377Z,95245
2022-09-13T06:45:56.135Z,95240
2022-09-13T06:47:04.812Z,95243
2022-09-13T06:48:13.567Z,95246
2022-09-13T06:49:23.325Z,95242
2022-09-13T06:50:32.120Z,95246
2022-09-13T06:51:41.872Z,95252
2022-09-13T06:52:50.591Z,95250
2022-09-13T06:54:00.309Z,95249
2022-09-13T06:55:12.048Z,95258
2022-09-13T06:56:17.800Z,95255
2022-09-13T06:57:25.530Z,95256
2022-09-13T06:58:35.263Z,95252
2022-09-13T06:59:44.943Z,95254
2022-09-13T07:00:56.213Z,95253
2022-09-13T07:02:04.443Z,95252
2022-09-13T07:03:14.162Z,95258
2022-09-13T07:04:22.951Z,95258
2022-09-13T07:05:32.692Z,95255
2022-09-13T07:06:42.410Z,95253
2022-09-13T07:07:52.344Z,95254
2022-09-13T07:09:02.059Z,95253
2022-09-13T07:10:10.822Z,95245
2022-09-13T07:11:20.536Z,95245
2022-09-13T07:12:29.271Z,95246
2022-09-13T07:13:38.028Z,95247
2022-09-13T07:14:47.800Z,95248
2022-09-13T07:15:54.656Z,95242
2022-09-13T07:17:04.730Z,95239
2022-09-13T07:18:14.404Z,95239
2022-09-13T07:19:24.291Z,95242
2022-09-13T07:20:34.196Z,95245
2022-09-13T07:21:43.972Z,95249
2022-09-13T07:22:53.827Z,95254
2022-09-13T07:24:03.562Z,95259
2022-09-13T07:25:12.258Z,95258
2022-09-13T07:26:21.016Z,95261
2022-09-13T07:27:30.748Z,95266
2022-09-13T07:28:40.453Z,95266
2022-09-13T07:29:50.168Z,95266
2022-09-13T07:30:57.935Z,95271
2022-09-13T07:32:07.645Z,95264
2022-09-13T07:33:17.328Z,95258
2022-09-13T07:34:25.995Z,95260
2022-09-13T07:35:34.672Z,95260
2022-09-13T07:36:44.415Z,95260
2022-09-13T07:37:54.174Z,95273
2022-09-13T07:39:03.895Z,95268
2022-09-13T07:40:14.779Z,95272
2022-09-13T07:41:24.332Z,95268
2022-09-13T07:42:34.083Z,95270
2022-09-13T07:43:42.769Z,95263
2022-09-13T07:44:52.544Z,95262
2022-09-13T07:46:02.371Z,95259
2022-09-13T07:47:12.053Z,95254
2022-09-13T07:48:21.780Z,95253
2022-09-13T07:49:31.471Z,95257
2022-09-13T07:50:41.198Z,95264
2022-09-13T07:51:50.885Z,95269
2022-09-13T07:52:59.622Z,95267
2022-09-13T07:54:09.354Z,95265
2022-09-13T07:55:18.139Z,95265
2022-09-13T07:56:26.892Z,95266
2022-09-13T07:57:36.670Z,95268
2022-09-13T07:58:46.462Z,95274
2022-09-13T07:59:56.165Z,95279
2022-09-13T08:01:05.983Z,95277
2022-09-13T08:02:14.766Z,95277
2022-09-13T08:03:23.428Z,95272
2022-09-13T08:04:36.220Z,95270
2022-09-13T08:05:42.972Z,95272
2022-09-13T08:06:52.676Z,95271
2022-09-13T08:08:02.463Z,95267
2022-09-13T08:09:12.320Z,95264
2022-09-13T08:10:22.109Z,95258
2022-09-13T08:11:30.951Z,95264
2022-09-13T08:12:40.691Z,95265
2022-09-13T08:13:50.541Z,95259
2022-09-13T08:15:00.106Z,95262
2022-09-13T08:16:09.948Z,95263
2022-09-13T08:17:19.707Z,95266
2022-09-13T08:18:28.389Z,95269
2022-09-13T08:19:38.124Z,95271
2022-09-13T08:20:45.835Z,95267
2022-09-13T08:21:54.523Z,95267
2022-09-13T08:23:04.279Z,95262
2022-09-13T08:24:13.001Z,95264
2022-09-13T08:25:22.731Z,95269
2022-09-13T08:26:31.467Z,95269
2022-09-13T08:27:40.198Z,95268
2022-09-13T08:28:49.963Z,95269
2022-09-13T08:29:59.699Z,95263
2022-09-13T08:31:09.735Z,95265
2022-09-13T08:32:18.466Z,95263
2022-09-13T08:33:28.214Z,95270
2022-09-13T08:34:36.951Z,95273
2022-09-13T08:35:44.663Z,95273
2022-09-13T08:36:53.379Z,95273
2022-09-13T08:38:03.050Z,95274
2022-09-13T08:39:12.763Z,95273
2022-09-13T08:40:21.520Z,95274
2022-09-13T08:41:31.243Z,95271
2022-09-13T08:42:41.002Z,95268
2022-09-13T08:43:50.705Z,95266
2022-09-13T08:44:59.425Z,95266
2022-09-13T08:46:09.491Z,95268
2022-09-13T08:47:19.196Z,95267
2022-09-13T08:48:26.935Z,95272
2022-09-13T08:49:36.658Z,95262
2022-09-13T08:50:45.396Z,95264
2022-09-13T08:51:54.236Z,95271
2022-09-13T08:53:02.938Z,95267
2022-09-13T08:54:11.660Z,95267
2022-09-13T08:55:21.388Z,95264
2022-09-13T08:56:30.172Z,95263
2022-09-13T08:57:40.012Z,95264
2022-09-13T08:58:49.820Z,95263
2022-09-13T08:59:58.557Z,95261
2022-09-13T09:01:07.389Z,95254
2022-09-13T09:02:16.168Z,95257
2022-09-13T09:03:24.885Z,95260
2022-09-13T09:04:34.791Z,95257
2022-09-13T09:05:42.569Z,95250
2022-09-13T09:06:54.991Z,95254
2022-09-13T09:08:02.274Z,95251
2022-09-13T09:09:11.244Z,95258
2022-09-13T09:10:20.128Z,95259
2022-09-13T09:11:30.079Z,95254
2022-09-13T09:12:39.959Z,95252
2022-09-13T09:13:50.088Z,95253
2022-09-13T09:14:58.942Z,95256
2022-09-13T09:16:07.627Z,95255
2022-09-13T09:17:17.300Z,95261
2022-09-13T09:18:27.025Z,95254
2022-09-13T09:19:35.744Z,95257
2022-09-13T09:20:44.558Z,95262
2022-09-13T09:21:54.396Z,95258
2022-09-13T09:23:04.118Z,95255
2022-09-13T09:24:12.879Z,95258
2022-09-13T09:25:25.340Z,95254
2022-09-13T09:26:35.249Z,95256
2022-09-13T09:27:44.025Z,95255
2022-09-13T09:28:53.932Z,95249
2022-09-13T09:30:03.712Z,95254
2022-09-13T09:31:13.529Z,95256
2022-09-13T09:32:23.234Z,95249
2022-09-13T09:33:31.065Z,95249
2022-09-13T09:34:40.864Z,95245
2022-09-13T09:35:50.638Z,95244
2022-09-13T09:37:00.405Z,95246
2022-09-13T09:38:09.255Z,95248
2022-09-13T09:39:18.983Z,95246
2022-09-13T09:40:31.677Z,95249
2022-09-13T09:41:38.668Z,95243
2022-09-13T09:42:47.441Z,95244
2022-09-13T09:43:55.215Z,95242
2022-09-13T09:45:04.999Z,95236
2022-09-13T09:46:14.933Z,95244
2022-09-13T09:47:28.691Z,95250
2022-09-13T09:48:34.421Z,95245
2022-09-13T09:49:44.193Z,95246
2022-09-13T09:50:52.940Z,95245
2022-09-13T09:52:02.705Z,95242
2022-09-13T09:53:12.441Z,95242
2022-09-13T09:54:21.188Z,95243
2022-09-13T09:55:30.943Z,95244
2022-09-13T09:56:39.689Z,95243
2022-09-13T09:57:48.393Z,95250
2022-09-13T09:58:58.132Z,95248
2022-09-13T10:00:07.015Z,95241
2022-09-13T10:01:16.885Z,95241
2022-09-13T10:02:26.661Z,95239
2022-09-13T10:03:35.339Z,95232
2022-09-13T10:04:45.243Z,95234
2022-09-13T10:05:53.987Z,95227
2022-09-13T10:07:02.921Z,95225
2022-09-13T10:08:13.664Z,95224
2022-09-13T10:09:21.523Z,95223
2022-09-13T10:10:30.291Z,95218
2022-09-13T10:11:40.167Z,95216
2022-09-13T10:12:49.839Z,95217
2022-09-13T10:13:59.692Z,95220
2022-09-13T10:15:07.426Z,95220
2022-09-13T10:16:17.255Z,95220
2022-09-13T10:17:27.006Z,95215
2022-09-13T10:18:50.703Z,95217
2022-09-13T10:19:44.902Z,95215
2022-09-13T10:20:54.640Z,95216
2022-09-13T10:22:03.375Z,95213
2022-09-13T10:23:13.223Z,95213
2022-09-13T10:24:21.973Z,95214
2022-09-13T10:25:31.702Z,95223
2022-09-13T10:26:44.377Z,95218
2022-09-13T10:27:53.132Z,95220
2022-09-13T10:29:01.867Z,95204
2022-09-13T10:30:10.649Z,95212
2022-09-13T10:31:19.498Z,95209
2022-09-13T10:32:29.215Z,95212
2022-09-13T10:33:38.043Z,95212
2022-09-13T10:34:47.924Z,95208
2022-09-13T10:35:57.664Z,95209
2022-09-13T10:37:05.373Z,95203
2022-09-13T10:38:15.339Z,95202
2022-09-13T10:39:24.131Z,95203
2022-09-13T10:40:33.993Z,95196
2022-09-13T10:41:43.798Z,95198
2022-09-13T10:42:52.628Z,95196
2022-09-13T10:44:04.543Z,95196
2022-09-13T10:45:13.242Z,95205
2022-09-13T10:46:21.096Z,95195
2022-09-13T10:47:31.043Z,95197
2022-09-13T10:48:39.865Z,95191
2022-09-13T10:49:48.678Z,95195
2022-09-13T10:50:58.964Z,95201
2022-09-13T10:52:12.645Z,95199
2022-09-13T10:53:18.909Z,95197
2022-09-13T10:54:26.693Z,95198
2022-09-13T10:55:36.407Z,95198
2022-09-13T10:56:47.423Z,95200
2022-09-13T10:57:57.234Z,95197
2022-09-13T10:59:06.997Z,95193
2022-09-13T11:00:15.907Z,95193
2022-09-13T11:01:25.774Z,95190
2022-09-13T11:02:36.539Z,95198
2022-09-13T11:03:45.294Z,95199
2022-09-13T11:04:55.035Z,95203
2022-09-13T11:06:04.808Z,95193
2022-09-13T11:07:13.557Z,95193
2022-09-13T11:08:22.247Z,95191
2022-09-13T11:09:30.988Z,95190
2022-09-13T11:10:40.803Z,95195
2022-09-13T11:11:50.565Z,95184
2022-09-13T11:12:59.302Z,95190
2022-09-13T11:14:09.156Z,95180
2022-09-13T11:15:18.936Z,95177
2022-09-13T11:16:26.730Z,95175
2022-09-13T11:17:38.007Z,95176
2022-09-13T11:18:47.904Z,95176
2022-09-13T11:19:57.638Z,95179
2022-09-13T11:21:08.668Z,95176
2022-09-13T11:22:17.489Z,95173
2022-09-13T11:23:26.217Z,95173
2022-09-13T11:24:36.001Z,95177
2022-09-13T11:25:45.773Z,95175
2022-09-13T11:26:54.488Z,95171
2022-09-13T11:28:03.254Z,95173
2022-09-13T11:29:13.012Z,95173
2022-09-13T11:30:25.431Z,95167
2022-09-13T11:31:33.679Z,95162
2022-09-13T11:32:43.339Z,95164
2022-09-13T11:33:53.064Z,95176
2022-09-13T11:35:05.817Z,95169
2022-09-13T11:36:14.618Z,95168
2022-09-13T11:37:24.294Z,95173
2022-09-13T11:38:33.097Z,95170
2022-09-13T11:39:42.938Z,95177
2022-09-13T11:40:50.592Z,95175
2022-09-13T11:42:00.297Z,95171
2022-09-13T11:43:10.004Z,95174
2022-09-13T11:44:17.746Z,95175
2022-09-13T11:45:27.653Z,95171
2022-09-13T11:46:37.349Z,95175
2022-09-13T11:47:46.204Z,95175
2022-09-13T11:48:56.031Z,95168
2022-09-13T11:50:04.809Z,95173
2022-09-13T11:51:13.592Z,95174
2022-09-13T11:52:23.397Z,95172
2022-09-13T11:53:32.116Z,95170
2022-09-13T11:54:40.818Z,95168
2022-09-13T11:55:49.550Z,95171
2022-09-13T11:56:59.332Z,95169
2022-09-13T11:58:09.152Z,95166
2022-09-13T11:59:18.957Z,95163
2022-09-13T12:00:27.768Z,95166
2022-09-13T12:01:37.560Z,95163
2022-09-13T12:02:46.443Z,95165
2022-09-13T12:03:56.049Z,95163
2022-09-13T12:05:21.411Z,95164
2022-09-13T12:06:16.482Z,95168
2022-09-13T12:07:25.355Z,95174
2022-09-13T12:08:34.280Z,95175
2022-09-13T12:09:43.908Z,95171
2022-09-13T12:10:53.691Z,95168
2022-09-13T12:12:04.338Z,95170
2022-09-13T12:13:13.317Z,95167
2022-09-13T12:14:23.188Z,95167
2022-09-13T12:15:30.941Z,95167
2022-09-13T12:16:40.777Z,95175
2022-09-13T12:17:49.486Z,95170
2022-09-13T12:18:58.242Z,95173
2022-09-13T12:20:08.079Z,95167
2022-09-13T12:21:17.808Z,95170
2022-09-13T12:22:30.690Z,95166
2022-09-13T12:23:37.418Z,95167
2022-09-13T12:24:46.050Z,95162
2022-09-13T12:25:55.931Z,95167
2022-09-13T12:27:04.709Z,95157
2022-09-13T12:28:14.739Z,95162
2022-09-13T12:29:24.422Z,95155
2022-09-13T12:30:33.139Z,95158
2022-09-13T12:31:41.937Z,95159
2022-09-13T12:32:54.412Z,95161
2022-09-13T12:34:04.181Z,95157
2022-09-13T12:35:13.918Z,95150
2022-09-13T12:36:22.682Z,95144
2022-09-13T12:37:32.428Z,95143
2022-09-13T12:38:42.326Z,95144
2022-09-13T12:39:52.040Z,95145
2022-09-13T12:41:00.749Z,95149
2022-09-13T12:42:10.474Z,95146
2022-09-13T12:43:27.442Z,95143
2022-09-13T12:44:36.165Z,95139
2022-09-13T12:45:44.934Z,95131
2022-09-13T12:46:53.590Z,95134
2022-09-13T12:48:03.368Z,95138
2022-09-13T12:49:12.142Z,95132
2022-09-13T12:50:42.669Z,95135
2022-09-13T12:51:33.189Z,95134
2022-09-13T12:52:41.883Z,95133
2022-09-13T12:53:51.717Z,95134
2022-09-13T12:54:59.410Z,95134
2022-09-13T12:56:09.216Z,95129
2022-09-13T12:57:18.953Z,95133
2022-09-13T12:58:28.979Z,95136
2022-09-13T12:59:38.684Z,95135
2022-09-13T13:00:48.487Z,95136
2022-09-13T13:01:58.323Z,95138
2022-09-13T13:03:07.928Z,95136
2022-09-13T13:04:16.861Z,95133
2022-09-13T13:05:26.580Z,95130
2022-09-13T13:06:36.420Z,95130
2022-09-13T13:07:45.149Z,95129
2022-09-13T13:08:54.888Z,95129
2022-09-13T13:10:03.664Z,95129
2022-09-13T13:11:12.329Z,95133
2022-09-13T13:12:22.056Z,95133
2022-09-13T13:13:30.799Z,95133
2022-09-13T13:14:39.588Z,95137
2022-09-13T13:15:50.152Z,95135
2022-09-13T13:16:58.148Z,95134
2022-09-13T13:18:08.193Z,95136
2022-09-13T13:19:16.996Z,95139
2022-09-13T13:20:25.979Z,95137
2022-09-13T13:21:35.730Z,95136
2022-09-13T13:22:45.613Z,95138
2022-09-13T13:23:55.597Z,95140
2022-09-13T13:25:04.932Z,95141
2022-09-13T13:26:14.906Z,95141
2022-09-13T13:27:24.703Z,95142
2022-09-13T13:28:33.841Z,95139
2022-09-13T13:29:43.653Z,95140
2022-09-13T13:30:53.496Z,95134
2022-09-13T13:32:02.360Z,95134
2022-09-13T13:33:12.071Z,95134
2022-09-13T13:34:20.819Z,95132
2022-09-13T13:35:36.474Z,95131
2022-09-13T13:36:46.259Z,95127
2022-09-13T13:37:57.037Z,95136
2022-09-13T13:39:06.992Z,95132
2022-09-13T13:40:17.092Z,95133
2022-09-13T13:41:25.989Z,95134
2022-09-13T13:42:34.773Z,95131
2022-09-13T13:43:44.538Z,95131
2022-09-13T13:44:53.325Z,95128
2022-09-13T13:46:03.595Z,95131
2022-09-13T13:47:11.390Z,95119
2022-09-13T13:48:21.151Z,95118
2022-09-13T13:49:30.871Z,95119
2022-09-13T13:50:40.617Z,95120
2022-09-13T13:51:49.365Z,95122
2022-09-13T13:52:59.130Z,95118
2022-09-13T13:54:08.852Z,95121
2022-09-13T13:55:21.496Z,95122
2022-09-13T13:56:30.296Z,95120
2022-09-13T13:57:40.065Z,95123
2022-09-13T13:58:49.897Z,95121
2022-09-13T13:59:59.670Z,95120
2022-09-13T14:01:08.439Z,95117
2022-09-13T14:02:17.307Z,95121
2022-09-13T14:03:26.044Z,95122
2022-09-13T14:04:36.084Z,95119
2022-09-13T14:05:44.765Z,95117
2022-09-13T14:06:54.563Z,95119
2022-09-13T14:08:05.285Z,95110
2022-09-13T14:09:14.003Z,95113
2022-09-13T14:10:23.846Z,95103
2022-09-13T14:11:33.612Z,95105
2022-09-13T14:12:43.416Z,95106
2022-09-13T14:13:53.183Z,95103
2022-09-13T14:15:00.998Z,95100
2022-09-13T14:16:11.526Z,95099
2022-09-13T14:17:21.551Z,95094
2022-09-13T14:18:30.322Z,95101
2022-09-13T14:19:38.994Z,95103
2022-09-13T14:20:47.800Z,95103
2022-09-13T14:21:57.698Z,95100
2022-09-13T14:23:07.432Z,95100
2022-09-13T14:24:16.182Z,95098
2022-09-13T14:25:24.939Z,95102
2022-09-13T14:26:34.756Z,95096
2022-09-13T14:27:43.599Z,95101
2022-09-13T14:28:53.385Z,95102
2022-09-13T14:30:02.313Z,95101
2022-09-13T14:31:11.304Z,95099
2022-09-13T14:32:21.369Z,95099
2022-09-13T14:33:31.245Z,95104
2022-09-13T14:34:40.228Z,95102
2022-09-13T14:35:50.055Z,95101
2022-09-13T14:36:58.966Z,95102
2022-09-13T14:38:07.912Z,95101
2022-09-13T14:39:16.761Z,95101
2022-09-13T14:40:26.802Z,95099
2022-09-13T14:41:36.441Z,95101
2022-09-13T14:42:45.609Z,95096
2022-09-13T14:43:55.754Z,95095
2022-09-13T14:45:05.689Z,95093
2022-09-13T14:46:15.543Z,95095
2022-09-13T14:47:24.337Z,95093
2022-09-13T14:48:32.230Z,95093
2022-09-13T14:49:41.051Z,95094
2022-09-13T14:50:51.964Z,95089
2022-09-13T14:52:00.722Z,95084
2022-09-13T14:53:10.618Z,95083